createdAt,value
2018-06-19T00:00:14.346Z,0.00
2018-06-19T00:01:14.349Z,0.00
2018-06-19T00:02:14.355Z,0.00
2018-06-19T00:03:14.362Z,0.00
2018-06-19T00:04:14.370Z,0.00
2018-06-19T00:05:14.377Z,0.00
2018-06-19T00:06:14.382Z,0.00
2018-06-19T00:07:14.373Z,0.00
2018-06-19T00:08:14.377Z,0.00
2018-06-19T00:09:14.384Z,0.00
2018-06-19T00:10:14.384Z,0.00
2018-06-19T00:11:14.383Z,0.00
2018-06-19T00:12:14.395Z,0.00
2018-06-19T00:13:14.393Z,0.00
2018-06-19T00:14:14.396Z,0.00
2018-06-19T00:15:14.399Z,0.00
2018-06-19T00:16:14.400Z,0.00
2018-06-19T00:17:14.424Z,0.00
2018-06-19T00:18:14.417Z,0.00
2018-06-19T00:19:14.413Z,0.00
2018-06-19T00:20:14.420Z,0.00
2018-06-19T00:21:14.423Z,0.00
2018-06-19T00:22:14.425Z,0.00
2018-06-19T00:23:14.431Z,0.00
2018-06-19T00:24:14.434Z,0.00
2018-06-19T00:25:14.434Z,0.00
2018-06-19T00:26:14.437Z,0.00
2018-06-19T00:27:14.445Z,0.00
2018-06-19T00:28:14.444Z,0.00
2018-06-19T00:29:14.451Z,0.00
2018-06-19T00:30:14.457Z,0.00
2018-06-19T00:31:14.456Z,0.00
2018-06-19T00:32:14.456Z,0.00
2018-06-19T00:33:14.468Z,0.00
2018-06-19T00:34:14.471Z,0.00
2018-06-19T00:35:14.481Z,0.00
2018-06-19T00:36:14.482Z,0.00
2018-06-19T00:37:14.494Z,0.00
2018-06-19T00:38:14.485Z,0.00
2018-06-19T00:39:14.490Z,0.00
2018-06-19T00:40:14.491Z,0.00
2018-06-19T00:41:14.485Z,0.00
2018-06-19T00:42:14.497Z,0.00
2018-06-19T00:43:14.494Z,0.00
2018-06-19T00:44:14.500Z,0.00
2018-06-19T00:45:14.506Z,0.00
2018-06-19T00:46:14.506Z,0.00
2018-06-19T00:47:14.511Z,0.00
2018-06-19T00:48:14.518Z,0.00
2018-06-19T00:49:14.520Z,0.00
2018-06-19T00:50:14.519Z,0.00
2018-06-19T00:51:14.526Z,0.00
2018-06-19T00:52:14.524Z,0.00
2018-06-19T00:53:14.532Z,0.00
2018-06-19T00:54:14.537Z,0.00
2018-06-19T00:55:14.561Z,0.00
2018-06-19T00:56:14.545Z,0.00
2018-06-19T00:57:14.545Z,0.00
2018-06-19T00:58:14.551Z,0.00
2018-06-19T00:59:14.552Z,0.00
2018-06-19T01:00:14.555Z,0.00
2018-06-19T01:01:14.560Z,0.00
2018-06-19T01:02:14.559Z,0.00
2018-06-19T01:03:14.568Z,0.00
2018-06-19T01:04:14.580Z,0.00
2018-06-19T01:05:14.574Z,0.00
2018-06-19T01:06:14.580Z,0.00
2018-06-19T01:07:14.588Z,0.00
2018-06-19T01:08:14.588Z,0.00
2018-06-19T01:09:14.595Z,0.00
2018-06-19T01:10:14.591Z,0.00
2018-06-19T01:11:14.591Z,0.00
2018-06-19T01:12:14.598Z,0.00
2018-06-19T01:13:14.599Z,0.00
2018-06-19T01:14:14.606Z,0.00
2018-06-19T01:15:14.604Z,0.00
2018-06-19T01:16:14.627Z,0.00
2018-06-19T01:17:14.617Z,0.00
2018-06-19T01:18:14.624Z,0.00
2018-06-19T01:19:14.646Z,0.00
2018-06-19T01:20:14.622Z,0.00
2018-06-19T01:21:14.624Z,0.00
2018-06-19T01:22:14.627Z,0.00
2018-06-19T01:23:14.634Z,0.00
2018-06-19T01:24:14.634Z,0.00
2018-06-19T01:25:14.632Z,0.00
2018-06-19T01:26:14.643Z,0.00
2018-06-19T01:27:14.641Z,0.00
2018-06-19T01:28:14.650Z,0.00
2018-06-19T01:29:14.649Z,0.00
2018-06-19T01:30:14.659Z,0.00
2018-06-19T01:31:14.672Z,0.00
2018-06-19T01:32:14.656Z,0.00
2018-06-19T01:33:14.662Z,0.00
2018-06-19T01:34:14.670Z,0.00
2018-06-19T01:35:14.670Z,0.00
2018-06-19T01:36:14.673Z,0.00
2018-06-19T01:37:14.674Z,0.00
2018-06-19T01:38:14.703Z,0.00
2018-06-19T01:39:14.680Z,0.00
2018-06-19T01:40:14.681Z,0.00
2018-06-19T01:41:14.689Z,0.00
2018-06-19T01:42:14.691Z,0.00
2018-06-19T01:43:14.699Z,0.00
2018-06-19T01:44:14.695Z,0.00
2018-06-19T01:45:14.706Z,0.00
2018-06-19T01:46:14.719Z,0.00
2018-06-19T01:47:14.703Z,0.00
2018-06-19T01:48:14.713Z,0.00
2018-06-19T01:49:14.733Z,0.00
2018-06-19T01:50:14.710Z,0.00
2018-06-19T01:51:14.720Z,0.00
2018-06-19T01:52:14.721Z,0.00
2018-06-19T01:53:14.729Z,0.00
2018-06-19T01:54:14.733Z,0.00
2018-06-19T01:55:14.724Z,0.00
2018-06-19T01:56:14.734Z,0.00
2018-06-19T01:57:14.736Z,0.00
2018-06-19T01:58:14.752Z,0.00
2018-06-19T01:59:14.755Z,0.00
2018-06-19T02:00:14.744Z,0.00
2018-06-19T02:01:14.755Z,0.00
2018-06-19T02:02:14.747Z,0.00
2018-06-19T02:03:14.758Z,0.00
2018-06-19T02:04:14.753Z,0.00
2018-06-19T02:05:14.758Z,0.00
2018-06-19T02:06:14.780Z,0.00
2018-06-19T02:07:14.764Z,0.00
2018-06-19T02:08:14.769Z,0.00
2018-06-19T02:09:14.774Z,0.00
2018-06-19T02:10:14.771Z,0.00
2018-06-19T02:11:14.795Z,0.00
2018-06-19T02:12:14.781Z,0.00
2018-06-19T02:13:14.786Z,0.00
2018-06-19T02:14:14.786Z,0.00
2018-06-19T02:15:14.789Z,0.00
2018-06-19T02:16:14.789Z,0.00
2018-06-19T02:17:14.789Z,0.00
2018-06-19T02:18:14.796Z,0.00
2018-06-19T02:19:14.802Z,0.00
2018-06-19T02:20:14.804Z,0.00
2018-06-19T02:21:14.801Z,0.00
2018-06-19T02:22:14.806Z,0.00
2018-06-19T02:23:14.813Z,0.00
2018-06-19T02:24:14.820Z,0.00
2018-06-19T02:25:14.817Z,0.00
2018-06-19T02:26:14.828Z,0.00
2018-06-19T02:27:14.821Z,0.00
2018-06-19T02:28:14.827Z,0.00
2018-06-19T02:29:14.841Z,0.00
2018-06-19T02:30:14.836Z,0.00
2018-06-19T02:31:14.836Z,0.00
2018-06-19T02:32:14.842Z,0.00
2018-06-19T02:33:14.839Z,0.00
2018-06-19T02:34:14.843Z,0.00
2018-06-19T02:35:14.849Z,0.00
2018-06-19T02:36:14.853Z,0.00
2018-06-19T02:37:14.857Z,0.00
2018-06-19T02:38:14.849Z,0.00
2018-06-19T02:39:14.864Z,0.00
2018-06-19T02:40:14.885Z,0.00
2018-06-19T02:41:14.863Z,0.00
2018-06-19T02:42:14.866Z,0.00
2018-06-19T02:43:14.866Z,4.00
2018-06-19T02:44:14.864Z,4.00
2018-06-19T02:45:14.874Z,0.00
2018-06-19T02:46:14.878Z,0.00
2018-06-19T02:47:14.880Z,4.00
2018-06-19T02:48:14.884Z,4.00
2018-06-19T02:49:14.880Z,0.00
2018-06-19T02:50:14.892Z,4.00
2018-06-19T02:51:14.888Z,0.00
2018-06-19T02:52:14.890Z,4.00
2018-06-19T02:53:14.902Z,4.00
2018-06-19T02:54:14.905Z,8.00
2018-06-19T02:55:14.902Z,4.00
2018-06-19T02:56:14.905Z,8.00
2018-06-19T02:57:14.903Z,8.00
2018-06-19T02:58:14.915Z,8.00
2018-06-19T02:59:14.912Z,12.00
2018-06-19T03:00:15.037Z,12.00
2018-06-19T03:19:38.799Z,72.00
2018-06-19T03:20:38.773Z,80.00
2018-06-19T03:21:38.766Z,88.00
2018-06-19T03:22:38.762Z,88.00
2018-06-19T03:23:38.762Z,96.00
2018-06-19T03:24:38.765Z,100.00
2018-06-19T03:25:38.766Z,100.00
2018-06-19T03:26:38.765Z,112.00
2018-06-19T03:27:38.765Z,112.00
2018-06-19T03:28:38.764Z,120.00
2018-06-19T03:29:38.767Z,124.00
2018-06-19T03:30:38.770Z,132.00
2018-06-19T03:31:38.768Z,140.00
2018-06-19T03:32:38.779Z,148.00
2018-06-19T03:33:38.770Z,156.00
2018-06-19T03:34:38.769Z,156.00
2018-06-19T03:35:38.775Z,140.00
2018-06-19T03:36:38.771Z,132.00
2018-06-19T03:37:38.775Z,128.00
2018-06-19T03:38:38.784Z,136.00
2018-06-19T03:39:38.786Z,144.00
2018-06-19T03:40:38.789Z,164.00
2018-06-19T03:41:38.788Z,184.00
2018-06-19T03:42:38.790Z,200.00
2018-06-19T03:43:38.791Z,228.00
2018-06-19T03:44:38.795Z,268.00
2018-06-19T03:45:38.797Z,328.00
2018-06-19T03:46:38.802Z,388.00
2018-06-19T03:47:38.799Z,420.00
2018-06-19T03:48:38.806Z,444.00
2018-06-19T03:49:38.808Z,492.00
2018-06-19T03:50:38.812Z,536.00
2018-06-19T03:51:38.814Z,576.00
2018-06-19T03:52:38.825Z,616.00
2018-06-19T03:53:38.826Z,644.00
2018-06-19T03:54:38.843Z,676.00
2018-06-19T03:55:38.825Z,732.00
2018-06-19T03:56:38.827Z,756.00
2018-06-19T03:57:38.830Z,796.00
2018-06-19T03:58:38.830Z,840.00
2018-06-19T03:59:38.845Z,884.00
2018-06-19T04:00:38.857Z,904.00
2018-06-19T04:01:38.837Z,944.00
2018-06-19T04:02:38.842Z,1008.00
2018-06-19T04:03:38.847Z,1440.00
2018-06-19T04:04:38.850Z,2504.00
2018-06-19T04:05:38.858Z,2776.00
2018-06-19T04:06:38.856Z,1828.00
2018-06-19T04:07:38.874Z,1200.00
2018-06-19T04:08:38.881Z,1176.00
2018-06-19T04:09:38.887Z,1296.00
2018-06-19T04:10:38.867Z,2096.00
2018-06-19T04:11:38.871Z,2064.00
2018-06-19T04:12:38.870Z,1416.00
2018-06-19T04:13:38.870Z,1812.00
2018-06-19T04:14:38.877Z,2068.00
2018-06-19T04:15:38.877Z,2460.00
2018-06-19T04:16:38.885Z,2296.00
2018-06-19T04:17:38.885Z,2836.00
2018-06-19T04:18:38.922Z,2076.00
2018-06-19T04:19:38.896Z,2000.00
2018-06-19T04:20:38.894Z,1820.00
2018-06-19T04:21:38.962Z,1868.00
2018-06-19T04:22:38.914Z,2032.00
2018-06-19T04:23:38.912Z,2224.00
2018-06-19T04:24:38.913Z,2036.00
2018-06-19T04:25:38.918Z,2016.00
2018-06-19T04:26:38.930Z,2080.00
2018-06-19T04:27:38.932Z,1896.00
2018-06-19T04:28:38.921Z,1928.00
2018-06-19T04:29:38.927Z,2028.00
2018-06-19T04:30:38.936Z,2116.00
2018-06-19T04:31:38.952Z,2236.00
2018-06-19T04:32:38.952Z,2340.00
2018-06-19T04:33:38.941Z,2308.00
2018-06-19T04:34:38.958Z,2208.00
2018-06-19T04:35:38.959Z,2100.00
2018-06-19T04:36:38.956Z,1948.00
2018-06-19T04:37:38.982Z,1740.00
2018-06-19T04:38:38.986Z,1560.00
2018-06-19T04:39:38.981Z,1396.00
2018-06-19T04:40:38.970Z,1300.00
2018-06-19T04:41:38.972Z,1168.00
2018-06-19T04:42:38.982Z,992.00
2018-06-19T04:43:38.983Z,912.00
2018-06-19T04:44:38.984Z,916.00
2018-06-19T04:45:38.992Z,976.00
2018-06-19T04:46:38.990Z,1064.00
2018-06-19T04:47:39.004Z,1168.00
2018-06-19T04:48:39.015Z,1204.00
2018-06-19T04:49:39.068Z,1232.00
2018-06-19T04:50:39.023Z,1072.00
2018-06-19T04:51:39.024Z,1016.00
2018-06-19T04:52:39.019Z,912.00
2018-06-19T04:53:39.026Z,776.00
2018-06-19T04:54:39.034Z,556.00
2018-06-19T04:55:39.033Z,544.00
2018-06-19T04:56:39.030Z,548.00
2018-06-19T04:57:39.035Z,552.00
2018-06-19T04:58:39.038Z,544.00
2018-06-19T04:59:39.042Z,572.00
2018-06-19T05:00:39.052Z,612.00
2018-06-19T05:01:39.050Z,676.00
2018-06-19T05:02:39.051Z,752.00
2018-06-19T05:03:39.062Z,760.00
2018-06-19T05:04:39.060Z,748.00
2018-06-19T05:05:39.089Z,748.00
2018-06-19T05:06:39.070Z,768.00
2018-06-19T05:07:39.089Z,764.00
2018-06-19T05:08:39.087Z,800.00
2018-06-19T05:09:39.087Z,892.00
2018-06-19T05:10:39.087Z,1096.00
2018-06-19T05:11:39.094Z,1236.00
2018-06-19T05:12:39.090Z,1548.00
2018-06-19T05:13:39.100Z,1620.00
2018-06-19T05:14:39.108Z,1788.00
2018-06-19T05:15:39.106Z,1780.00
2018-06-19T05:16:39.119Z,1824.00
2018-06-19T05:17:39.124Z,1912.00
2018-06-19T05:18:39.126Z,1988.00
2018-06-19T05:19:39.118Z,2508.00
2018-06-19T05:20:39.126Z,2748.00
2018-06-19T05:21:39.127Z,3972.00
2018-06-19T05:22:39.130Z,9416.00
2018-06-19T05:23:39.139Z,4132.00
2018-06-19T05:24:39.137Z,2812.00
2018-06-19T05:25:39.153Z,2432.00
2018-06-19T05:26:47.793Z,2168.00
2018-06-19T05:28:41.615Z,1992.00
2018-06-19T05:29:41.175Z,1964.00
2018-06-19T05:31:25.975Z,2044.00
2018-06-19T05:32:25.966Z,1948.00
2018-06-19T05:33:34.592Z,1864.00
2018-06-19T05:35:28.437Z,1908.00
2018-06-19T05:37:40.669Z,2104.00
2018-06-19T05:38:40.667Z,2020.00
2018-06-19T05:39:40.672Z,2028.00
2018-06-19T05:40:40.674Z,1860.00
2018-06-19T05:41:40.687Z,1728.00
2018-06-19T05:42:40.680Z,1768.00
2018-06-19T05:43:40.684Z,23488.00
2018-06-19T05:44:40.689Z,2464.00
2018-06-19T05:45:40.714Z,2684.00
2018-06-19T05:46:40.696Z,2408.00
2018-06-19T05:47:40.707Z,2212.00
2018-06-19T05:48:40.705Z,2448.00
2018-06-19T05:49:40.714Z,2660.00
2018-06-19T05:50:40.713Z,4476.00
2018-06-19T05:51:40.719Z,5708.00
2018-06-19T05:52:40.731Z,27136.00
2018-06-19T05:53:40.732Z,8344.00
2018-06-19T05:54:40.736Z,16160.00
2018-06-19T05:55:40.737Z,5920.00
2018-06-19T05:56:40.755Z,11192.00
2018-06-19T05:57:40.761Z,8456.00
2018-06-19T05:58:40.760Z,5568.00
2018-06-19T05:59:40.770Z,3636.00
2018-06-19T06:00:40.776Z,3212.00
2018-06-19T06:01:40.785Z,8088.00
2018-06-19T06:02:40.790Z,3004.00
2018-06-19T06:03:40.797Z,1972.00
2018-06-19T06:04:40.803Z,1824.00
2018-06-19T06:05:40.887Z,1776.00
2018-06-19T06:06:40.823Z,1616.00
2018-06-19T06:07:40.824Z,1468.00
2018-06-19T06:08:40.836Z,1404.00
2018-06-19T06:09:40.840Z,1356.00
2018-06-19T06:10:40.851Z,1384.00
2018-06-19T06:11:40.859Z,1440.00
2018-06-19T06:12:40.874Z,1444.00
2018-06-19T06:13:40.871Z,1652.00
2018-06-19T06:14:40.873Z,1964.00
2018-06-19T06:15:41.005Z,2468.00
2018-06-19T06:16:40.997Z,2580.00
2018-06-19T06:17:40.895Z,2740.00
2018-06-19T06:18:40.903Z,2816.00
2018-06-19T06:19:40.907Z,3220.00
2018-06-19T06:20:40.910Z,5860.00
2018-06-19T06:21:40.919Z,7096.00
2018-06-19T06:22:40.923Z,7900.00
2018-06-19T06:23:40.927Z,7684.00
2018-06-19T06:24:40.938Z,7472.00
2018-06-19T06:25:40.943Z,6860.00
2018-06-19T06:26:40.946Z,6704.00
2018-06-19T06:27:40.955Z,6688.00
2018-06-19T06:28:40.968Z,6780.00
2018-06-19T06:29:40.964Z,6776.00
2018-06-19T06:30:40.977Z,6576.00
2018-06-19T06:31:40.977Z,6424.00
2018-06-19T06:32:40.986Z,6552.00
2018-06-19T06:33:40.997Z,6708.00
2018-06-19T06:34:40.997Z,7120.00
2018-06-19T06:35:41.007Z,7200.00
2018-06-19T06:36:41.015Z,7088.00
2018-06-19T06:37:41.019Z,6784.00
2018-06-19T06:38:41.043Z,6396.00
2018-06-19T06:39:41.048Z,6032.00
2018-06-19T06:40:41.045Z,5688.00
2018-06-19T06:41:41.042Z,5416.00
2018-06-19T06:42:41.045Z,5156.00
2018-06-19T06:43:41.055Z,4924.00
2018-06-19T06:44:41.095Z,4724.00
2018-06-19T06:45:41.071Z,4620.00
2018-06-19T06:46:41.074Z,4536.00
2018-06-19T06:47:41.075Z,4464.00
2018-06-19T06:48:41.089Z,4404.00
2018-06-19T06:49:41.098Z,4312.00
2018-06-19T06:50:41.121Z,4224.00
2018-06-19T06:51:41.140Z,4144.00
2018-06-19T06:52:41.122Z,4076.00
2018-06-19T06:53:41.125Z,4000.00
2018-06-19T06:54:41.122Z,3924.00
2018-06-19T06:55:41.129Z,3860.00
2018-06-19T06:56:41.138Z,3796.00
2018-06-19T06:57:41.142Z,3740.00
2018-06-19T06:58:41.142Z,3712.00
2018-06-19T06:59:41.153Z,3700.00
2018-06-19T07:00:41.163Z,3692.00
2018-06-19T07:01:41.165Z,3684.00
2018-06-19T07:02:41.175Z,3664.00
2018-06-19T07:03:41.172Z,3652.00
2018-06-19T07:04:41.192Z,3636.00
2018-06-19T07:05:41.213Z,3640.00
2018-06-19T07:06:41.192Z,3648.00
2018-06-19T07:07:41.218Z,3644.00
2018-06-19T07:08:41.204Z,3640.00
2018-06-19T07:09:41.214Z,3636.00
2018-06-19T07:10:41.209Z,3640.00
2018-06-19T07:11:41.218Z,3664.00
2018-06-19T07:12:41.233Z,3676.00
2018-06-19T07:13:41.233Z,3680.00
2018-06-19T07:14:41.243Z,3668.00
2018-06-19T07:15:41.316Z,3656.00
2018-06-19T07:16:41.299Z,3628.00
2018-06-19T07:17:41.261Z,3596.00
2018-06-19T07:18:41.348Z,3568.00
2018-06-19T07:19:41.272Z,3552.00
2018-06-19T07:20:41.277Z,3540.00
2018-06-19T07:21:41.283Z,3552.00
2018-06-19T07:22:41.317Z,3568.00
2018-06-19T07:23:41.297Z,3580.00
2018-06-19T07:24:41.297Z,3584.00
2018-06-19T07:25:41.319Z,3544.00
2018-06-19T07:26:41.303Z,3500.00
2018-06-19T07:27:41.330Z,3488.00
2018-06-19T07:28:41.315Z,3520.00
2018-06-19T07:29:41.375Z,3640.00
2018-06-19T07:30:41.333Z,3812.00
2018-06-19T07:31:41.329Z,4012.00
2018-06-19T07:32:41.339Z,4208.00
2018-06-19T07:33:41.345Z,4472.00
2018-06-19T07:34:41.506Z,4528.00
2018-06-19T07:35:41.625Z,4548.00
2018-06-19T07:36:41.594Z,4324.00
2018-06-19T07:37:41.370Z,4624.00
2018-06-19T07:38:41.388Z,4656.00
2018-06-19T07:39:41.368Z,4440.00
2018-06-19T07:40:50.712Z,4232.00
2018-06-19T07:42:34.357Z,3704.00
2018-06-19T07:43:34.344Z,3364.00
2018-06-19T07:44:35.023Z,3028.00
2018-06-19T07:45:34.367Z,2112.00
2018-06-19T07:46:34.375Z,2192.00
2018-06-19T07:47:34.382Z,2144.00
2018-06-19T07:48:34.372Z,2396.00
2018-06-19T07:49:34.482Z,2324.00
2018-06-19T07:50:34.392Z,2040.00
2018-06-19T07:51:34.413Z,1892.00
2018-06-19T07:52:34.412Z,1916.00
2018-06-19T07:53:34.416Z,2128.00
2018-06-19T07:54:34.426Z,2228.00
2018-06-19T07:55:34.473Z,2424.00
2018-06-19T07:56:34.464Z,2040.00
2018-06-19T07:57:34.421Z,1880.00
2018-06-19T07:58:34.456Z,1840.00
2018-06-19T07:59:34.440Z,2044.00
2018-06-19T08:00:34.443Z,2124.00
2018-06-19T08:01:34.451Z,2128.00
2018-06-19T08:02:34.455Z,2192.00
2018-06-19T08:03:34.460Z,2324.00
2018-06-19T08:04:34.493Z,2296.00
2018-06-19T08:05:34.467Z,2260.00
2018-06-19T08:06:34.486Z,2232.00
2018-06-19T08:07:34.478Z,2208.00
2018-06-19T08:08:34.514Z,2156.00
2018-06-19T08:09:34.494Z,2052.00
2018-06-19T08:10:34.499Z,2012.00
2018-06-19T08:11:34.504Z,1908.00
2018-06-19T08:12:34.513Z,1980.00
2018-06-19T08:13:34.593Z,2088.00
2018-06-19T08:14:34.570Z,1936.00
2018-06-19T08:15:34.537Z,2152.00
2018-06-19T08:16:34.542Z,2320.00
2018-06-19T08:17:34.541Z,2404.00
2018-06-19T08:18:34.560Z,2252.00
2018-06-19T08:19:34.565Z,2252.00
2018-06-19T08:20:34.570Z,2352.00
2018-06-19T08:21:34.569Z,2496.00
2018-06-19T08:22:34.632Z,2456.00
2018-06-19T08:23:34.569Z,2296.00
2018-06-19T08:24:34.585Z,2160.00
2018-06-19T08:25:34.585Z,1988.00
2018-06-19T08:26:34.592Z,1984.00
2018-06-19T08:27:34.595Z,2104.00
2018-06-19T08:28:34.598Z,2248.00
2018-06-19T08:29:34.621Z,2424.00
2018-06-19T08:30:34.606Z,2436.00
2018-06-19T08:31:34.609Z,2432.00
2018-06-19T08:32:34.628Z,2500.00
2018-06-19T08:33:34.628Z,2556.00
2018-06-19T08:34:34.633Z,2416.00
2018-06-19T08:35:34.633Z,2248.00
2018-06-19T08:36:34.639Z,2252.00
2018-06-19T08:37:34.648Z,2260.00
2018-06-19T08:38:34.650Z,2272.00
2018-06-19T08:39:34.657Z,2220.00
2018-06-19T08:40:34.669Z,2120.00
2018-06-19T08:41:34.672Z,1952.00
2018-06-19T08:42:34.693Z,1828.00
2018-06-19T08:43:34.683Z,1760.00
2018-06-19T08:44:34.692Z,1840.00
2018-06-19T08:45:34.695Z,1752.00
2018-06-19T08:46:34.703Z,1800.00
2018-06-19T08:47:34.709Z,1808.00
2018-06-19T08:48:34.716Z,1720.00
2018-06-19T08:49:34.719Z,1764.00
2018-06-19T08:50:34.716Z,1788.00
2018-06-19T08:51:34.744Z,1772.00
2018-06-19T08:52:34.736Z,1824.00
2018-06-19T08:53:34.739Z,1820.00
2018-06-19T08:54:34.750Z,1856.00
2018-06-19T08:55:34.747Z,1952.00
2018-06-19T08:56:34.757Z,1904.00
2018-06-19T08:57:34.768Z,1924.00
2018-06-19T08:58:34.766Z,1964.00
2018-06-19T08:59:34.781Z,1960.00
2018-06-19T09:00:34.785Z,1980.00
2018-06-19T09:01:34.792Z,2004.00
2018-06-19T09:02:34.791Z,2032.00
2018-06-19T09:03:34.798Z,1988.00
2018-06-19T09:04:34.809Z,2012.00
2018-06-19T09:05:34.811Z,2048.00
2018-06-19T09:06:34.809Z,2208.00
2018-06-19T09:07:34.815Z,2216.00
2018-06-19T09:08:34.828Z,2220.00
2018-06-19T09:09:34.845Z,2188.00
2018-06-19T09:10:34.838Z,2300.00
2018-06-19T09:11:34.845Z,2256.00
2018-06-19T09:12:34.850Z,2420.00
2018-06-19T09:13:34.863Z,2516.00
2018-06-19T09:14:34.865Z,2448.00
2018-06-19T09:15:34.871Z,2560.00
2018-06-19T09:16:34.880Z,2456.00
2018-06-19T09:17:34.878Z,2504.00
2018-06-19T09:18:34.888Z,2196.00
2018-06-19T09:19:34.911Z,2168.00
2018-06-19T09:20:34.903Z,2068.00
2018-06-19T09:21:34.911Z,2188.00
2018-06-19T09:22:34.919Z,2212.00
2018-06-19T09:23:34.922Z,2048.00
2018-06-19T09:24:34.924Z,1992.00
2018-06-19T09:25:34.934Z,1960.00
2018-06-19T09:26:34.937Z,1940.00
2018-06-19T09:27:34.945Z,1800.00
2018-06-19T09:28:34.949Z,1728.00
2018-06-19T09:29:34.961Z,1748.00
2018-06-19T09:30:34.974Z,1904.00
2018-06-19T09:31:34.983Z,1920.00
2018-06-19T09:32:34.972Z,2032.00
2018-06-19T09:33:34.989Z,2096.00
2018-06-19T09:34:35.006Z,2072.00
2018-06-19T09:35:34.991Z,2112.00
2018-06-19T09:36:34.995Z,2052.00
2018-06-19T09:37:35.008Z,2096.00
2018-06-19T09:38:35.011Z,2036.00
2018-06-19T09:39:35.013Z,2004.00
2018-06-19T09:40:35.027Z,2024.00
2018-06-19T09:41:35.033Z,2044.00
2018-06-19T09:42:35.032Z,2160.00
2018-06-19T09:43:35.045Z,1948.00
2018-06-19T09:44:35.043Z,2156.00
2018-06-19T09:45:35.056Z,2124.00
2018-06-19T09:46:35.064Z,2088.00
2018-06-19T09:47:35.071Z,2148.00
2018-06-19T09:48:35.073Z,2220.00
2018-06-19T09:49:35.082Z,2252.00
2018-06-19T09:50:35.086Z,2316.00
2018-06-19T09:51:35.091Z,2404.00
2018-06-19T09:52:35.098Z,2452.00
2018-06-19T09:53:35.131Z,2464.00
2018-06-19T09:54:35.118Z,2280.00
2018-06-19T09:55:35.123Z,2236.00
2018-06-19T09:56:35.121Z,2304.00
2018-06-19T09:57:35.126Z,2144.00
2018-06-19T09:58:35.136Z,2152.00
2018-06-19T09:59:35.195Z,2100.00
2018-06-19T10:00:35.164Z,1948.00
2018-06-19T10:01:35.157Z,1828.00
2018-06-19T10:02:35.163Z,1888.00
2018-06-19T10:03:35.167Z,1812.00
2018-06-19T10:04:35.168Z,1832.00
2018-06-19T10:05:35.215Z,1820.00
2018-06-19T10:06:35.241Z,1912.00
2018-06-19T10:07:35.192Z,1952.00
2018-06-19T10:08:35.246Z,2008.00
2018-06-19T10:09:35.211Z,2004.00
2018-06-19T10:10:35.206Z,1964.00
2018-06-19T10:11:35.224Z,1944.00
2018-06-19T10:12:35.227Z,1928.00
2018-06-19T10:13:35.237Z,2080.00
2018-06-19T10:14:35.233Z,2064.00
2018-06-19T10:15:35.243Z,2088.00
2018-06-19T10:16:35.252Z,1996.00
2018-06-19T10:17:35.261Z,2148.00
2018-06-19T10:18:35.258Z,2144.00
2018-06-19T10:19:35.311Z,2068.00
2018-06-19T10:20:35.273Z,2076.00
2018-06-19T10:21:35.292Z,2048.00
2018-06-19T10:22:35.302Z,2432.00
2018-06-19T10:23:35.314Z,2080.00
2018-06-19T10:24:35.297Z,2080.00
2018-06-19T10:25:35.303Z,2112.00
2018-06-19T10:26:35.315Z,2136.00
2018-06-19T10:27:35.319Z,2168.00
2018-06-19T10:28:35.389Z,2260.00
2018-06-19T10:29:35.327Z,2180.00
2018-06-19T10:30:35.361Z,2116.00
2018-06-19T10:31:35.357Z,1932.00
2018-06-19T10:32:35.378Z,1896.00
2018-06-19T10:33:35.360Z,1928.00
2018-06-19T10:34:35.368Z,1904.00
2018-06-19T10:35:35.379Z,2064.00
2018-06-19T10:36:35.392Z,2120.00
2018-06-19T10:37:35.400Z,2168.00
2018-06-19T10:38:35.399Z,2132.00
2018-06-19T10:39:35.412Z,2088.00
2018-06-19T10:40:35.443Z,2092.00
2018-06-19T10:41:35.409Z,1756.00
2018-06-19T10:42:35.418Z,1908.00
2018-06-19T10:43:35.438Z,2000.00
2018-06-19T10:44:35.431Z,2020.00
2018-06-19T10:45:35.442Z,1984.00
2018-06-19T10:46:35.476Z,2004.00
2018-06-19T10:47:35.451Z,1968.00
2018-06-19T10:48:35.487Z,1924.00
2018-06-19T10:49:35.465Z,1936.00
2018-06-19T10:50:35.516Z,1892.00
2018-06-19T10:51:35.483Z,1936.00
2018-06-19T10:52:35.603Z,1988.00
2018-06-19T10:53:35.499Z,1952.00
2018-06-19T10:54:35.513Z,1996.00
2018-06-19T10:55:35.509Z,1916.00
2018-06-19T10:56:35.521Z,1984.00
2018-06-19T10:57:35.565Z,1976.00
2018-06-19T10:58:35.529Z,1948.00
2018-06-19T10:59:35.539Z,1924.00
2018-06-19T11:00:35.571Z,1800.00
2018-06-19T11:01:35.560Z,1836.00
2018-06-19T11:02:35.589Z,1924.00
2018-06-19T11:03:35.606Z,1936.00
2018-06-19T11:04:35.647Z,2008.00
2018-06-19T11:05:35.753Z,1936.00
2018-06-19T11:06:35.656Z,1944.00
2018-06-19T11:07:35.609Z,1984.00
2018-06-19T11:08:35.611Z,1988.00
2018-06-19T11:09:35.617Z,2008.00
2018-06-19T11:10:35.698Z,1904.00
2018-06-19T11:11:35.620Z,1836.00
2018-06-19T11:12:35.647Z,1776.00
2018-06-19T11:13:35.644Z,1800.00
2018-06-19T11:14:35.723Z,1964.00
2018-06-19T11:15:35.695Z,1972.00
2018-06-19T11:17:56.737Z,2064.00
2018-06-19T11:18:56.768Z,1880.00
2018-06-19T11:19:56.798Z,1988.00
2018-06-19T11:20:56.763Z,1872.00
2018-06-19T11:21:56.745Z,1956.00
2018-06-19T11:22:56.746Z,1740.00
2018-06-19T11:23:56.835Z,1684.00
2018-06-19T11:24:56.786Z,1640.00
2018-06-19T11:25:56.768Z,1684.00
2018-06-19T11:26:56.778Z,1840.00
2018-06-19T11:27:56.847Z,1988.00
2018-06-19T11:28:56.825Z,2028.00
2018-06-19T11:29:56.861Z,1988.00
2018-06-19T11:30:56.833Z,1976.00
2018-06-19T11:31:56.820Z,2008.00
2018-06-19T11:32:56.874Z,1936.00
2018-06-19T11:33:56.836Z,1968.00
2018-06-19T11:34:56.845Z,1996.00
2018-06-19T11:35:56.867Z,1960.00
2018-06-19T11:36:56.863Z,1904.00
2018-06-19T11:37:56.855Z,1940.00
2018-06-19T11:38:56.871Z,1840.00
2018-06-19T11:39:56.923Z,1780.00
2018-06-19T11:40:56.886Z,1756.00
2018-06-19T11:41:56.885Z,1752.00
2018-06-19T11:42:56.898Z,1716.00
2018-06-19T11:43:56.904Z,1764.00
2018-06-19T11:44:56.954Z,1796.00
2018-06-19T11:45:56.924Z,1848.00
2018-06-19T11:46:56.927Z,1820.00
2018-06-19T11:47:56.930Z,1848.00
2018-06-19T11:48:56.949Z,1884.00
2018-06-19T11:49:56.943Z,2028.00
2018-06-19T11:50:56.981Z,2104.00
2018-06-19T11:51:56.962Z,2012.00
2018-06-19T11:52:57.012Z,2028.00
2018-06-19T11:53:56.973Z,2048.00
2018-06-19T11:54:57.020Z,1876.00
2018-06-19T11:55:56.989Z,1808.00
2018-06-19T11:56:57.041Z,1844.00
2018-06-19T11:57:56.997Z,1876.00
2018-06-19T11:58:57.027Z,1980.00
2018-06-19T11:59:57.013Z,1900.00
2018-06-19T12:00:57.030Z,1956.00
2018-06-19T12:01:57.079Z,1908.00
2018-06-19T12:02:57.091Z,1868.00
2018-06-19T12:03:57.064Z,1812.00
2018-06-19T12:04:57.295Z,1824.00
2018-06-19T12:05:57.067Z,1636.00
2018-06-19T12:06:57.076Z,1832.00
2018-06-19T12:07:57.071Z,1784.00
2018-06-19T12:08:57.094Z,1732.00
2018-06-19T12:09:57.088Z,1888.00
2018-06-19T12:10:57.200Z,1900.00
2018-06-19T12:11:57.146Z,1932.00
2018-06-19T12:12:57.115Z,1940.00
2018-06-19T12:13:57.121Z,1900.00
2018-06-19T12:14:57.173Z,1904.00
2018-06-19T12:15:57.142Z,1768.00
2018-06-19T12:16:57.145Z,1920.00
2018-06-19T12:17:57.155Z,1884.00
2018-06-19T12:18:57.157Z,1856.00
2018-06-19T12:19:57.180Z,1872.00
2018-06-19T12:20:57.174Z,1820.00
2018-06-19T12:21:57.233Z,1968.00
2018-06-19T12:22:57.189Z,2032.00
2018-06-19T12:23:57.217Z,2000.00
2018-06-19T12:24:57.209Z,1976.00
2018-06-19T12:25:57.225Z,1960.00
2018-06-19T12:26:57.216Z,1988.00
2018-06-19T12:27:57.273Z,2080.00
2018-06-19T12:28:57.238Z,2044.00
2018-06-19T12:29:57.254Z,2008.00
2018-06-19T12:30:57.253Z,2004.00
2018-06-19T12:31:57.312Z,1956.00
2018-06-19T12:32:57.269Z,1936.00
2018-06-19T12:33:57.280Z,1944.00
2018-06-19T12:34:57.321Z,2004.00
2018-06-19T12:35:57.328Z,2004.00
2018-06-19T12:36:57.357Z,2044.00
2018-06-19T12:37:57.360Z,1992.00
2018-06-19T12:38:57.352Z,2068.00
2018-06-19T12:39:57.321Z,2048.00
2018-06-19T12:40:57.361Z,2040.00
2018-06-19T12:41:57.379Z,2088.00
2018-06-19T12:42:57.409Z,2072.00
2018-06-19T12:43:57.401Z,2032.00
2018-06-19T12:44:57.364Z,2008.00
2018-06-19T12:45:57.404Z,1988.00
2018-06-19T12:46:57.455Z,1988.00
2018-06-19T12:47:57.402Z,2008.00
2018-06-19T12:48:57.422Z,1992.00